logo
Rechercher aéroport 
image banner adimage banner adimage banner ad
image banner ad

BIHE - Herdubreidarlindir

Situé à Herdubreidarlindir, Iceland

ICAO - BIHE, IATA -

Données fournies par Airmate  

Information générale

Coordonnées: N65°11'28" W16°12'18"
Élévation : 1592 feet MSL.
 
Voir autres Aéroports à East

Données opérationnelles

Special qualification required
Heure actuelle UTC:
Heure actuelle locale:
Météo à : - ( 0 km )
METAR: CYTL 222327Z AUTO 04012G24KT 010V070 3/8SM SN BKN006 OVC009 00/00 A2969 RMK PCPN 0.8MM PAST HR ICE MISG SLP069
Voir NOTAMs / SUP AIP / TFR affectant cet aéroport [VIEW]
Fréquences de communication: [VIEW]

Pistes:

Identifiant RWYQFULongueur (ft)Largeur (ft)SurfaceLDA (ft)
01262162GRAVE
19262162GRAVE

Coordonnées de l'aéroport

Adresse: Herdubreidarlindir Iceland

Vue satellite de BIHE